Time;durP1;ratioP1;P1;durP2;ratioP2;P2;SDS_P1;SDS_P2;PMS_P1;PMS_P2;Temp;Humidity;BMP_temperature;BMP_pressure;BME280_temperature;BME280_humidity;BME280_pressure;Samples;Min_cycle;Max_cycle;Signal;HPM_P1;HPM_P2
2022/05/29 00:00:49;;;;;;;12.80;2.60;;;11.00;99.90;;;;;;5065704;28;20068;-70
2022/05/29 00:03:20;;;;;;;26.13;3.08;;;11.00;99.90;;;;;;5065212;28;20475;-69
2022/05/29 00:05:48;;;;;;;18.48;2.90;;;11.00;99.90;;;;;;5041605;28;20123;-64
2022/05/29 00:08:26;;;;;;;14.95;2.83;;;10.90;99.90;;;;;;5053426;28;20037;-59
2022/05/29 00:10:52;;;;;;;11.32;2.47;;;10.90;99.90;;;;;;5063658;28;20083;-63
2022/05/29 00:13:19;;;;;;;13.23;2.58;;;10.90;99.90;;;;;;5061708;28;20054;-65
2022/05/29 00:15:48;;;;;;;18.58;2.63;;;10.80;99.90;;;;;;5037780;28;20041;-63
2022/05/29 00:18:14;;;;;;;13.25;2.95;;;10.70;99.90;;;;;;5053403;28;20041;-63
2022/05/29 00:20:40;;;;;;;15.90;3.47;;;10.70;99.90;;;;;;5054842;28;20811;-60
2022/05/29 00:23:06;;;;;;;19.35;3.97;;;10.60;99.90;;;;;;5063341;28;20479;-59
2022/05/29 00:25:33;;;;;;;16.42;2.97;;;10.60;99.90;;;;;;5066669;28;20059;-65
2022/05/29 00:27:59;;;;;;;12.63;3.53;;;10.60;99.90;;;;;;5065446;28;20135;-60
2022/05/29 00:30:25;;;;;;;18.92;4.25;;;10.60;99.90;;;;;;5066980;28;20530;-59
2022/05/29 00:32:50;;;;;;;23.25;3.75;;;10.60;99.90;;;;;;5065139;28;20048;-61
2022/05/29 00:35:16;;;;;;;23.05;4.38;;;10.60;99.90;;;;;;5065934;28;20041;-66
2022/05/29 00:37:42;;;;;;;13.55;2.85;;;10.60;99.90;;;;;;5065134;28;20048;-64
2022/05/29 00:40:11;;;;;;;13.93;2.92;;;10.60;99.90;;;;;;5049548;28;20049;-68
2022/05/29 00:42:37;;;;;;;15.53;3.03;;;10.60;99.90;;;;;;5066470;28;20487;-58
2022/05/29 00:45:05;;;;;;;13.10;2.40;;;10.70;99.90;;;;;;5047197;28;20037;-60
2022/05/29 00:47:31;;;;;;;17.83;3.08;;;10.70;99.90;;;;;;5066545;28;20548;-59
2022/05/29 00:49:58;;;;;;;18.10;3.42;;;10.80;99.90;;;;;;5028098;28;20041;-63
2022/05/29 00:52:28;;;;;;;15.85;3.35;;;10.90;99.90;;;;;;5053053;28;20394;-69
2022/05/29 00:55:15;;;;;;;15.57;2.53;;;10.90;99.90;;;;;;5065011;28;20056;-62
2022/05/29 00:57:47;;;;;;;18.83;3.95;;;11.00;99.90;;;;;;5058484;28;20053;-67
2022/05/29 01:00:22;;;;;;;17.02;3.42;;;11.00;99.90;;;;;;5063424;28;20041;-59
2022/05/29 01:02:48;;;;;;;14.82;2.65;;;11.10;99.90;;;;;;5065000;28;20052;-70
2022/05/29 01:05:16;;;;;;;22.50;2.83;;;11.10;99.90;;;;;;5066024;28;20049;-67
2022/05/29 01:07:45;;;;;;;16.60;3.50;;;11.10;99.90;;;;;;5064709;28;20044;-65
2022/05/29 01:10:11;;;;;;;12.82;3.10;;;11.10;99.90;;;;;;5065935;28;20053;-59
2022/05/29 01:13:05;;;;;;;7.30;2.10;;;11.10;99.90;;;;;;5065187;28;20068;-59
2022/05/29 01:15:45;;;;;;;16.50;2.47;;;11.10;99.90;;;;;;5048272;28;20044;-66
2022/05/29 01:18:32;;;;;;;10.85;2.50;;;11.10;99.90;;;;;;5065867;28;20098;-59
2022/05/29 01:21:33;;;;;;;11.73;2.42;;;11.20;99.90;;;;;;5064478;28;20048;-70
2022/05/29 01:24:05;;;;;;;9.00;1.70;;;11.20;99.90;;;;;;5047141;28;20552;-65
2022/05/29 01:27:07;;;;;;;16.10;2.70;;;11.20;99.90;;;;;;5066081;28;20044;-60
2022/05/29 01:29:46;;;;;;;18.45;2.70;;;11.20;99.90;;;;;;5064143;28;20581;-66
2022/05/29 01:32:20;;;;;;;10.88;2.35;;;11.20;99.90;;;;;;5048730;28;20033;-60
2022/05/29 01:34:54;;;;;;;23.98;3.50;;;11.20;99.90;;;;;;5065651;28;20044;-59
2022/05/29 01:37:32;;;;;;;15.13;3.35;;;11.20;99.90;;;;;;5064114;28;20048;-65
2022/05/29 01:40:10;;;;;;;12.23;2.70;;;11.20;99.90;;;;;;5045972;28;20518;-60
2022/05/29 01:42:50;;;;;;;20.23;4.35;;;11.10;99.90;;;;;;5056643;28;20048;-60
2022/05/29 01:45:54;;;;;;;21.58;4.82;;;11.00;99.90;;;;;;5065365;28;20052;-60
2022/05/29 01:48:42;;;;;;;16.77;4.32;;;11.00;99.90;;;;;;5064877;28;20510;-60
2022/05/29 01:51:17;;;;;;;16.30;4.47;;;10.90;99.90;;;;;;5064181;28;20445;-69
2022/05/29 01:53:49;;;;;;;18.80;3.42;;;10.90;99.90;;;;;;5065696;28;20494;-63
2022/05/29 01:56:44;;;;;;;15.02;2.90;;;10.80;99.90;;;;;;5063565;28;20051;-58
2022/05/29 01:59:16;;;;;;;13.65;2.70;;;10.80;99.90;;;;;;5051827;28;20056;-60
2022/05/29 02:01:47;;;;;;;13.93;3.15;;;10.80;99.90;;;;;;5065416;28;20051;-67
2022/05/29 02:04:18;;;;;;;14.23;3.00;;;10.90;99.90;;;;;;5063779;28;20048;-61
2022/05/29 02:09:45;;;;;;;17.52;3.55;;;10.90;99.90;;;;;;5065552;28;20056;-60
2022/05/29 02:12:17;;;;;;;17.65;4.75;;;10.90;99.90;;;;;;5063456;28;20564;-66
2022/05/29 02:14:52;;;;;;;12.25;2.53;;;10.90;99.90;;;;;;5052730;28;20383;-68
2022/05/29 02:17:28;;;;;;;18.75;3.90;;;10.80;99.90;;;;;;5063827;28;20439;-58
2022/05/29 02:20:32;;;;;;;15.85;4.43;;;10.80;99.90;;;;;;5047778;28;20052;-62
2022/05/29 02:23:14;;;;;;;14.90;3.15;;;10.80;99.90;;;;;;5014026;28;20057;-66
2022/05/29 02:25:40;;;;;;;24.35;3.70;;;10.80;99.90;;;;;;5056529;28;20135;-63
2022/05/29 02:28:13;;;;;;;22.63;3.83;;;10.70;99.90;;;;;;5045140;28;20044;-62
2022/05/29 02:30:58;;;;;;;17.45;3.10;;;10.60;99.90;;;;;;5056558;28;20056;-60
2022/05/29 02:33:31;;;;;;;12.10;3.22;;;10.60;99.90;;;;;;5063675;28;20502;-68
2022/05/29 02:36:19;;;;;;;4.88;1.80;;;10.50;99.90;;;;;;5061980;28;20045;-68
2022/05/29 02:39:06;;;;;;;9.27;2.22;;;10.30;99.90;;;;;;5035692;28;20056;-68
2022/05/29 02:41:49;;;;;;;10.65;1.77;;;10.20;99.90;;;;;;5064308;28;20052;-67
2022/05/29 02:44:35;;;;;;;13.27;2.35;;;10.20;99.90;;;;;;5065000;28;20048;-65
2022/05/29 02:47:07;;;;;;;12.63;2.70;;;10.20;99.90;;;;;;5063352;28;20048;-68
2022/05/29 02:49:44;;;;;;;10.85;2.58;;;10.30;99.90;;;;;;5048730;28;20482;-66
2022/05/29 02:52:14;;;;;;;15.82;3.13;;;10.30;99.90;;;;;;5043492;28;20143;-63
2022/05/29 02:54:40;;;;;;;17.30;3.20;;;10.40;99.90;;;;;;5041423;28;20146;-64
2022/05/29 02:57:06;;;;;;;7.30;2.10;;;10.40;99.90;;;;;;5064831;28;20201;-62
2022/05/29 02:59:46;;;;;;;12.98;2.80;;;10.40;99.90;;;;;;5063155;28;20050;-69
2022/05/29 03:02:18;;;;;;;16.20;2.75;;;10.30;99.90;;;;;;5067150;28;20116;-62
2022/05/29 03:05:15;;;;;;;14.23;2.80;;;10.40;99.90;;;;;;5067470;28;20924;-63
2022/05/29 03:07:55;;;;;;;14.20;2.75;;;10.40;99.90;;;;;;5067870;28;20499;-69
2022/05/29 03:10:31;;;;;;;17.17;2.80;;;10.40;99.90;;;;;;5069848;28;20044;-65
2022/05/29 03:13:22;;;;;;;10.77;2.63;;;10.40;99.90;;;;;;5067028;28;20117;-64
2022/05/29 03:15:54;;;;;;;18.20;3.13;;;10.50;99.90;;;;;;5068431;28;20095;-69
2022/05/29 03:18:38;;;;;;;17.98;3.63;;;10.50;99.90;;;;;;5050673;28;20045;-59
2022/05/29 03:21:17;;;;;;;22.33;2.67;;;10.50;99.90;;;;;;5066990;28;20043;-59
2022/05/29 03:23:57;;;;;;;15.55;3.47;;;10.60;99.90;;;;;;5068202;28;20083;-69
2022/05/29 03:26:50;;;;;;;11.20;2.80;;;10.60;99.90;;;;;;5044721;28;20045;-59
2022/05/29 03:29:30;;;;;;;13.65;3.17;;;10.70;99.90;;;;;;5061750;28;20564;-60
2022/05/29 03:31:57;;;;;;;14.80;2.25;;;10.70;99.90;;;;;;5068300;28;20333;-59
2022/05/29 03:34:23;;;;;;;14.45;2.83;;;10.60;99.90;;;;;;5065782;28;20487;-61
2022/05/29 03:36:50;;;;;;;17.80;2.88;;;10.60;99.90;;;;;;5068060;28;20117;-67
2022/05/29 03:39:17;;;;;;;15.75;2.65;;;10.50;99.90;;;;;;5066361;28;20048;-68
2022/05/29 03:41:49;;;;;;;18.42;3.10;;;10.50;99.90;;;;;;5067927;28;20044;-60
2022/05/29 03:44:17;;;;;;;14.20;2.78;;;10.40;99.90;;;;;;5050412;28;20449;-61
2022/05/29 03:46:44;;;;;;;13.90;2.65;;;10.30;99.90;;;;;;5066730;28;20040;-60
2022/05/29 03:49:15;;;;;;;14.63;2.50;;;10.30;99.90;;;;;;5048125;28;20049;-60
2022/05/29 03:51:41;;;;;;;13.50;2.80;;;10.30;99.90;;;;;;5063431;28;20075;-70
2022/05/29 03:54:08;;;;;;;13.35;2.50;;;10.20;99.90;;;;;;5051146;28;20028;-63
2022/05/29 03:56:35;;;;;;;14.70;2.72;;;10.10;99.90;;;;;;5046781;28;20053;-62
2022/05/29 03:59:01;;;;;;;22.70;3.78;;;10.10;99.90;;;;;;5067800;28;20060;-67
2022/05/29 04:01:27;;;;;;;12.35;2.60;;;10.20;99.90;;;;;;5066249;28;20072;-59
2022/05/29 04:03:55;;;;;;;15.38;2.72;;;10.20;99.90;;;;;;5050196;28;20087;-65
2022/05/29 04:06:22;;;;;;;18.30;2.90;;;10.30;99.90;;;;;;5050115;28;20048;-66
2022/05/29 04:14:18;;;;;;;17.67;2.55;;;10.30;99.90;;;;;;5063622;28;20127;-61
2022/05/29 04:16:44;;;;;;;9.90;2.20;;;10.30;99.90;;;;;;5046367;28;20144;-69
2022/05/29 04:19:10;;;;;;;6.50;1.58;;;10.30;99.90;;;;;;5062415;28;20538;-62
2022/05/29 04:21:36;;;;;;;16.08;2.30;;;10.30;99.90;;;;;;5048763;28;20929;-68
2022/05/29 04:24:02;;;;;;;15.95;2.30;;;10.30;99.90;;;;;;5050499;28;20059;-64
2022/05/29 04:26:28;;;;;;;18.85;2.72;;;10.40;99.90;;;;;;5048017;28;20045;-63
2022/05/29 04:28:53;;;;;;;22.17;2.53;;;10.40;99.90;;;;;;5067170;28;20056;-66
2022/05/29 04:31:25;;;;;;;14.63;2.80;;;10.40;99.90;;;;;;5064516;28;20059;-69
2022/05/29 04:33:50;;;;;;;29.20;3.38;;;10.40;99.90;;;;;;5067137;28;20398;-59
2022/05/29 04:36:16;;;;;;;13.23;2.33;;;10.50;99.90;;;;;;5048584;28;20431;-67
2022/05/29 04:38:42;;;;;;;20.70;3.00;;;10.50;99.90;;;;;;5045915;28;20033;-63
2022/05/29 04:41:08;;;;;;;14.43;2.58;;;10.50;99.90;;;;;;5044213;28;20760;-60
2022/05/29 04:43:35;;;;;;;18.42;3.05;;;10.50;99.90;;;;;;5064601;28;20497;-63
2022/05/29 04:46:01;;;;;;;21.05;3.92;;;10.50;99.90;;;;;;5030125;28;20049;-65
2022/05/29 04:48:27;;;;;;;21.00;3.45;;;10.50;99.90;;;;;;5063409;28;20387;-70
2022/05/29 04:51:01;;;;;;;9.82;2.08;;;10.40;99.90;;;;;;5067208;28;20052;-59
2022/05/29 04:53:28;;;;;;;20.98;3.40;;;10.30;99.90;;;;;;5065723;28;20071;-58
2022/05/29 04:55:56;;;;;;;21.65;3.42;;;10.30;99.90;;;;;;5066042;28;20099;-61
2022/05/29 04:58:27;;;;;;;15.55;3.00;;;10.30;99.90;;;;;;5049247;28;20414;-60
2022/05/29 05:01:00;;;;;;;13.40;3.13;;;10.40;99.90;;;;;;5065202;28;20082;-68
2022/05/29 05:03:27;;;;;;;19.10;3.55;;;10.40;99.90;;;;;;5064513;28;20048;-69
2022/05/29 05:05:52;;;;;;;19.92;3.85;;;10.50;99.90;;;;;;5064817;28;20131;-67
2022/05/29 05:08:18;;;;;;;16.25;3.38;;;10.50;99.90;;;;;;5066458;28;20132;-64
2022/05/29 05:10:45;;;;;;;19.23;3.13;;;10.60;99.90;;;;;;5047104;28;20084;-59
2022/05/29 05:13:11;;;;;;;18.58;3.58;;;10.60;99.90;;;;;;5065140;28;20040;-60
2022/05/29 05:15:37;;;;;;;14.65;3.45;;;10.60;99.90;;;;;;5066042;28;20048;-64
2022/05/29 05:18:03;;;;;;;19.30;3.53;;;10.60;99.90;;;;;;5044610;28;20045;-59
2022/05/29 05:20:30;;;;;;;15.10;2.53;;;10.60;99.90;;;;;;5058397;28;20452;-63
2022/05/29 05:22:57;;;;;;;16.20;3.55;;;10.60;99.90;;;;;;5064012;28;20146;-67
2022/05/29 05:25:23;;;;;;;15.25;2.63;;;10.70;99.90;;;;;;5064913;28;20052;-65
2022/05/29 05:27:51;;;;;;;15.85;2.85;;;10.70;99.90;;;;;;5047953;28;20048;-63
2022/05/29 05:30:17;;;;;;;15.70;3.13;;;10.70;99.90;;;;;;5065964;28;20074;-64
2022/05/29 05:32:44;;;;;;;15.48;2.63;;;10.70;99.90;;;;;;5048271;28;20495;-62
2022/05/29 05:35:09;;;;;;;12.38;3.03;;;10.70;99.90;;;;;;5045093;28;20399;-60
2022/05/29 05:37:37;;;;;;;7.07;1.70;;;10.80;99.90;;;;;;5042239;28;20052;-61
2022/05/29 05:40:06;;;;;;;13.10;2.40;;;10.80;99.90;;;;;;5064328;28;20072;-62
2022/05/29 05:42:36;;;;;;;11.50;2.10;;;10.80;99.90;;;;;;5048363;28;20079;-65
2022/05/29 05:45:02;;;;;;;9.18;1.83;;;10.80;99.90;;;;;;5041271;28;20048;-59
2022/05/29 05:47:28;;;;;;;8.13;2.13;;;10.80;99.20;;;;;;5044579;28;20077;-61
2022/05/29 05:49:53;;;;;;;13.95;2.78;;;10.90;99.90;;;;;;5036423;28;20129;-61
2022/05/29 05:52:19;;;;;;;14.40;2.67;;;10.90;99.90;;;;;;5047605;28;20225;-63
2022/05/29 05:54:51;;;;;;;15.57;3.55;;;10.90;99.90;;;;;;5065425;28;20475;-64
2022/05/29 05:57:18;;;;;;;14.63;3.33;;;10.90;99.90;;;;;;5030410;28;20056;-63
2022/05/29 05:59:45;;;;;;;13.02;2.08;;;10.90;99.90;;;;;;5058711;28;20048;-67
2022/05/29 06:02:11;;;;;;;14.88;2.35;;;10.80;99.90;;;;;;5047576;28;20044;-57
2022/05/29 06:04:38;;;;;;;9.65;2.20;;;10.80;99.90;;;;;;5065185;28;20045;-61
2022/05/29 06:07:05;;;;;;;9.52;2.10;;;10.70;99.90;;;;;;5065091;28;20071;-66
2022/05/29 06:09:30;;;;;;;9.38;2.35;;;10.60;99.10;;;;;;5063932;28;20123;-62
2022/05/29 06:11:56;;;;;;;11.35;2.08;;;10.60;99.90;;;;;;5049017;28;20195;-64
2022/05/29 06:14:22;;;;;;;9.20;2.38;;;10.60;99.90;;;;;;5062958;28;20474;-68
2022/05/29 06:16:48;;;;;;;10.50;1.98;;;10.70;99.90;;;;;;5065063;28;20560;-68
2022/05/29 06:19:14;;;;;;;15.38;2.85;;;10.70;99.90;;;;;;5063960;28;20082;-69
2022/05/29 06:21:40;;;;;;;14.75;2.28;;;10.70;99.90;;;;;;5037905;28;20041;-69
2022/05/29 06:24:06;;;;;;;12.05;2.67;;;10.60;99.90;;;;;;5024646;28;20447;-69
2022/05/29 06:26:33;;;;;;;18.60;2.80;;;10.60;99.90;;;;;;5062296;28;20464;-70
2022/05/29 06:28:59;;;;;;;18.25;3.25;;;10.40;99.90;;;;;;5048884;28;20059;-59
2022/05/29 06:31:26;;;;;;;17.27;3.17;;;10.30;99.90;;;;;;5047120;28;20041;-62
2022/05/29 06:33:52;;;;;;;14.13;2.42;;;10.30;99.90;;;;;;5064890;28;20502;-69
2022/05/29 06:36:20;;;;;;;15.30;2.63;;;10.40;99.90;;;;;;5048473;28;20041;-65
2022/05/29 06:38:46;;;;;;;9.52;2.08;;;10.50;99.90;;;;;;5068540;28;20376;-65
2022/05/29 06:41:14;;;;;;;17.15;2.38;;;10.60;99.90;;;;;;5051124;28;20056;-68
2022/05/29 06:43:40;;;;;;;15.20;2.88;;;10.80;99.90;;;;;;5068606;28;20048;-61
2022/05/29 06:46:08;;;;;;;19.48;2.60;;;10.90;99.90;;;;;;5068788;28;20082;-63
2022/05/29 06:48:35;;;;;;;13.65;2.55;;;10.90;99.90;;;;;;5046782;28;20036;-63
2022/05/29 06:51:11;;;;;;;20.77;2.28;;;11.00;99.90;;;;;;5044578;28;20071;-60
2022/05/29 06:53:37;;;;;;;4.72;1.45;;;11.00;99.90;;;;;;5059275;28;20083;-64
2022/05/29 06:56:04;;;;;;;8.27;2.50;;;11.00;99.90;;;;;;5054622;28;20048;-65
2022/05/29 06:58:30;;;;;;;9.70;2.05;;;11.00;99.90;;;;;;5045072;28;20056;-61
2022/05/29 07:09:17;;;;;;;14.43;2.75;;;11.20;99.90;;;;;;5059310;28;20713;-63
2022/05/29 07:11:47;;;;;;;12.75;2.42;;;11.20;99.90;;;;;;5047418;28;20403;-59
2022/05/29 07:14:14;;;;;;;17.33;2.80;;;11.20;99.90;;;;;;5067927;28;20105;-63
2022/05/29 07:16:40;;;;;;;8.63;1.83;;;11.20;99.90;;;;;;5046934;28;20804;-62
2022/05/29 07:19:05;;;;;;;9.57;2.47;;;11.10;99.90;;;;;;5066902;28;20186;-61
2022/05/29 07:21:40;;;;;;;9.07;1.80;;;11.10;99.90;;;;;;5068744;28;20044;-60
2022/05/29 07:24:07;;;;;;;9.95;2.35;;;11.10;99.90;;;;;;5066402;28;20411;-65
2022/05/29 07:26:34;;;;;;;9.73;1.95;;;11.10;99.90;;;;;;5051869;28;20044;-65
2022/05/29 07:29:00;;;;;;;9.02;1.63;;;11.00;99.90;;;;;;5063822;28;20854;-64
2022/05/29 07:31:26;;;;;;;11.90;2.20;;;10.90;99.90;;;;;;5052469;28;20075;-67
2022/05/29 07:33:52;;;;;;;6.07;1.80;;;10.90;99.90;;;;;;5058268;28;20053;-60
2022/05/29 07:36:19;;;;;;;10.45;1.83;;;10.80;99.90;;;;;;5066179;28;20060;-64
2022/05/29 07:38:45;;;;;;;10.57;2.58;;;10.70;99.90;;;;;;5047414;28;20475;-66
2022/05/29 07:43:56;;;;;;;8.25;1.50;;;10.70;99.90;;;;;;5057481;28;20048;-63
2022/05/29 07:46:22;;;;;;;10.63;2.00;;;10.70;99.90;;;;;;5047395;28;20052;-61
2022/05/29 07:48:51;;;;;;;13.57;2.10;;;10.80;99.90;;;;;;5025788;28;20033;-66
2022/05/29 07:51:17;;;;;;;9.60;2.15;;;10.90;99.90;;;;;;5049373;28;20095;-64
2022/05/29 07:53:43;;;;;;;10.00;2.00;;;10.90;99.90;;;;;;5047018;28;20526;-67
2022/05/29 07:56:10;;;;;;;8.90;1.90;;;11.00;99.90;;;;;;5065777;28;20114;-65
2022/05/29 07:58:38;;;;;;;10.52;2.03;;;11.10;99.90;;;;;;5046860;28;20048;-68
2022/05/29 08:01:05;;;;;;;6.78;1.60;;;11.20;99.90;;;;;;5058955;28;20085;-65
2022/05/29 08:03:32;;;;;;;5.63;1.55;;;11.20;99.90;;;;;;5043154;28;20036;-61
2022/05/29 08:05:58;;;;;;;8.75;2.05;;;11.30;99.90;;;;;;5047886;28;20040;-65
2022/05/29 08:08:24;;;;;;;8.15;1.83;;;11.20;99.90;;;;;;5048671;28;20143;-63
2022/05/29 08:10:50;;;;;;;12.95;2.40;;;11.20;99.90;;;;;;5048442;28;20097;-66
2022/05/29 08:13:16;;;;;;;13.23;2.30;;;11.10;99.90;;;;;;5064943;28;20040;-66
2022/05/29 08:15:42;;;;;;;13.07;2.70;;;11.00;99.90;;;;;;5063029;28;20189;-66
2022/05/29 08:18:09;;;;;;;14.05;2.35;;;10.90;99.90;;;;;;5064839;28;20053;-61
2022/05/29 08:20:39;;;;;;;15.13;2.75;;;10.80;99.90;;;;;;5046691;28;20041;-66
2022/05/29 08:23:06;;;;;;;9.70;2.50;;;10.70;99.90;;;;;;5064879;28;20127;-64
2022/05/29 08:31:00;;;;;;;7.70;2.15;;;10.80;99.90;;;;;;5060999;28;20087;-64
2022/05/29 08:33:32;;;;;;;14.73;2.42;;;10.90;99.90;;;;;;5041509;28;20068;-61
2022/05/29 08:36:19;;;;;;;8.93;1.88;;;11.00;99.90;;;;;;5046577;28;20053;-62
2022/05/29 08:38:47;;;;;;;10.43;2.08;;;11.00;99.90;;;;;;5064024;28;20056;-64
2022/05/29 08:41:16;;;;;;;13.13;2.17;;;11.00;99.90;;;;;;5061711;28;20059;-68
2022/05/29 08:43:57;;;;;;;10.98;2.30;;;10.90;99.90;;;;;;5065494;28;20032;-59
2022/05/29 08:46:37;;;;;;;15.27;2.72;;;10.80;99.90;;;;;;5064897;28;20131;-63
2022/05/29 08:49:04;;;;;;;10.90;1.92;;;10.70;99.90;;;;;;5049923;28;20510;-64
2022/05/29 08:51:47;;;;;;;15.05;3.40;;;10.70;99.90;;;;;;5036704;28;20043;-59
2022/05/29 08:54:30;;;;;;;10.70;1.60;;;10.70;99.90;;;;;;5065093;28;20113;-65
2022/05/29 08:57:14;;;;;;;6.95;1.63;;;10.80;99.90;;;;;;5065836;28;20044;-63
2022/05/29 08:59:43;;;;;;;8.50;1.70;;;11.00;99.90;;;;;;5064167;28;20045;-59
2022/05/29 09:02:29;;;;;;;13.00;2.25;;;11.20;99.90;;;;;;5065996;28;20059;-68
2022/05/29 09:05:24;;;;;;;9.45;2.20;;;11.30;99.90;;;;;;5065613;28;20053;-62
2022/05/29 09:07:53;;;;;;;4.68;1.20;;;11.30;99.90;;;;;;5028529;28;20121;-60
2022/05/29 09:10:32;;;;;;;12.88;2.28;;;11.00;99.90;;;;;;5049939;28;20380;-64
2022/05/29 09:13:02;;;;;;;8.95;1.95;;;10.80;99.90;;;;;;5064271;28;20508;-59
2022/05/29 09:15:50;;;;;;;8.37;1.50;;;10.70;99.90;;;;;;5065366;28;20041;-60
2022/05/29 09:18:36;;;;;;;5.78;1.27;;;10.70;99.90;;;;;;5062938;28;20045;-60
2022/05/29 09:21:34;;;;;;;12.80;2.20;;;10.80;99.90;;;;;;5059556;28;20052;-64
2022/05/29 09:24:11;;;;;;;8.35;1.70;;;10.80;99.90;;;;;;5062957;28;20048;-63
2022/05/29 09:26:38;;;;;;;11.02;2.35;;;10.90;99.90;;;;;;5049244;28;20032;-62
2022/05/29 09:29:06;;;;;;;10.93;2.10;;;11.00;99.90;;;;;;5063730;28;20041;-64
2022/05/29 09:31:32;;;;;;;13.70;1.77;;;11.00;99.90;;;;;;5048998;28;20384;-62
2022/05/29 09:33:59;;;;;;;9.20;1.58;;;11.10;99.90;;;;;;5063407;28;20084;-62
2022/05/29 09:37:07;;;;;;;14.52;2.00;;;11.20;99.90;;;;;;5037864;28;20040;-70
2022/05/29 09:39:44;;;;;;;9.80;1.90;;;11.30;99.90;;;;;;5036519;28;20057;-64
2022/05/29 09:42:19;;;;;;;8.40;1.42;;;11.40;99.90;;;;;;5038992;28;20645;-60
2022/05/29 09:45:03;;;;;;;14.05;2.75;;;11.30;99.90;;;;;;5052170;28;20126;-68
2022/05/29 09:50:18;;;;;;;13.73;1.75;;;11.30;99.90;;;;;;5049716;28;20048;-68
2022/05/29 09:52:45;;;;;;;8.13;1.85;;;11.30;98.80;;;;;;5043912;28;20091;-62
2022/05/29 09:55:30;;;;;;;6.72;1.48;;;11.40;99.60;;;;;;5030847;28;20132;-61
2022/05/29 09:58:02;;;;;;;7.38;2.25;;;11.50;99.40;;;;;;5057961;28;20052;-70
2022/05/29 10:00:35;;;;;;;7.45;1.65;;;11.40;97.70;;;;;;5065654;28;20044;-60
2022/05/29 10:03:02;;;;;;;4.82;1.67;;;11.50;99.90;;;;;;5049977;28;20986;-66
2022/05/29 10:05:38;;;;;;;8.07;1.80;;;11.50;99.90;;;;;;5028298;28;20048;-60
2022/05/29 10:08:18;;;;;;;8.88;1.98;;;11.40;99.90;;;;;;5055600;28;20410;-67
2022/05/29 10:10:44;;;;;;;8.80;2.47;;;11.40;99.40;;;;;;5062945;28;20250;-70
2022/05/29 10:13:11;;;;;;;10.15;1.55;;;11.40;99.70;;;;;;5025694;28;20045;-62
2022/05/29 10:15:41;;;;;;;12.43;1.73;;;11.40;99.90;;;;;;5047760;28;20151;-71
2022/05/29 10:18:32;;;;;;;9.73;1.70;;;11.40;98.60;;;;;;5064514;28;20394;-61
2022/05/29 10:21:24;;;;;;;8.95;2.47;;;11.50;99.80;;;;;;5046476;28;20436;-59
2022/05/29 10:23:53;;;;;;;8.07;1.35;;;11.40;99.60;;;;;;5060059;28;20052;-63
2022/05/29 10:26:22;;;;;;;8.03;1.57;;;11.40;99.90;;;;;;5046090;28;20040;-64
2022/05/29 10:28:49;;;;;;;12.38;1.92;;;11.50;99.90;;;;;;5064008;28;20070;-60
2022/05/29 10:31:25;;;;;;;10.48;1.95;;;11.60;99.90;;;;;;5047785;28;20082;-65
2022/05/29 10:34:40;;;;;;;12.40;2.42;;;11.60;99.90;;;;;;5063564;28;20051;-65
2022/05/29 10:37:42;;;;;;;7.95;2.28;;;11.50;99.90;;;;;;5046267;28;20060;-60
2022/05/29 10:40:11;;;;;;;7.65;1.73;;;11.40;97.50;;;;;;5053836;28;20490;-62
2022/05/29 10:42:46;;;;;;;22.73;1.97;;;11.40;99.10;;;;;;5042603;28;20060;-70
2022/05/29 10:45:24;;;;;;;9.07;1.52;;;11.50;99.00;;;;;;5064466;28;20495;-61
2022/05/29 10:48:24;;;;;;;7.13;1.33;;;11.70;95.90;;;;;;5063211;28;20044;-63
2022/05/29 10:51:22;;;;;;;6.75;1.45;;;11.80;93.80;;;;;;5057510;28;20057;-63
2022/05/29 10:54:16;;;;;;;8.60;1.42;;;12.00;95.90;;;;;;5055574;28;20123;-64
2022/05/29 10:57:10;;;;;;;7.47;1.73;;;12.10;92.00;;;;;;5063338;28;20509;-61
2022/05/29 10:59:48;;;;;;;9.88;1.40;;;12.20;90.10;;;;;;5062143;28;20068;-61
2022/05/29 11:03:18;;;;;;;8.82;1.55;;;12.30;88.90;;;;;;5063966;28;20093;-68
2022/05/29 11:06:02;;;;;;;11.20;1.83;;;12.40;91.90;;;;;;5038140;28;20048;-63
2022/05/29 11:08:33;;;;;;;10.68;1.98;;;12.60;90.30;;;;;;5044441;28;20056;-67
2022/05/29 11:11:18;;;;;;;12.45;1.83;;;12.60;89.80;;;;;;5063737;28;20399;-65
2022/05/29 11:14:14;;;;;;;11.40;1.92;;;12.60;87.50;;;;;;5059832;28;20044;-63
2022/05/29 11:17:21;;;;;;;6.15;1.52;;;12.60;91.70;;;;;;5046392;28;20052;-61
2022/05/29 11:20:05;;;;;;;9.25;2.03;;;12.70;94.40;;;;;;5045063;28;20044;-61
2022/05/29 11:22:31;;;;;;;16.23;1.77;;;12.60;85.90;;;;;;5064016;28;20045;-60
2022/05/29 11:25:12;;;;;;;10.32;2.58;;;12.50;89.60;;;;;;5067002;28;20368;-63
2022/05/29 11:27:59;;;;;;;15.23;2.85;;;12.50;90.90;;;;;;5068207;28;20144;-68
2022/05/29 11:30:36;;;;;;;11.50;2.05;;;12.30;84.70;;;;;;5062114;28;20055;-61
2022/05/29 11:33:16;;;;;;;8.45;2.00;;;12.30;92.30;;;;;;5065178;28;20053;-69
2022/05/29 11:36:20;;;;;;;9.70;1.67;;;12.20;86.70;;;;;;5050542;28;20127;-71
2022/05/29 11:39:30;;;;;;;7.53;1.70;;;12.10;79.00;;;;;;5066077;28;20532;-69
2022/05/29 11:42:15;;;;;;;12.48;2.20;;;12.20;81.90;;;;;;5029732;28;20056;-67
2022/05/29 11:44:51;;;;;;;14.90;2.50;;;12.30;85.60;;;;;;5066686;28;20110;-63
2022/05/29 11:53:33;;;;;;;11.60;2.08;;;12.60;81.50;;;;;;5066919;28;20383;-59
2022/05/29 11:56:22;;;;;;;8.38;2.35;;;12.70;87.40;;;;;;5062424;28;20051;-62
2022/05/29 11:59:01;;;;;;;8.52;1.55;;;12.60;79.20;;;;;;5067345;28;20060;-59
2022/05/29 12:01:38;;;;;;;18.08;2.17;;;12.80;86.20;;;;;;5065502;28;20040;-61
2022/05/29 12:04:16;;;;;;;13.13;2.45;;;12.80;83.90;;;;;;5048834;28;20120;-69
2022/05/29 12:07:07;;;;;;;13.63;2.20;;;12.80;84.40;;;;;;5067077;28;20070;-68
2022/05/29 12:09:45;;;;;;;12.13;2.10;;;12.80;82.00;;;;;;5055797;28;20395;-65
2022/05/29 12:12:16;;;;;;;6.80;1.70;;;12.70;72.60;;;;;;5030632;28;20418;-62
2022/05/29 12:14:52;;;;;;;10.65;2.15;;;12.80;83.20;;;;;;5064740;28;20044;-62
2022/05/29 12:17:36;;;;;;;6.90;1.63;;;12.80;75.80;;;;;;5048892;28;20059;-67
2022/05/29 12:20:11;;;;;;;9.98;1.48;;;12.80;79.50;;;;;;5060289;28;20037;-63
2022/05/29 12:23:05;;;;;;;11.93;1.42;;;12.70;59.50;;;;;;5065092;28;20040;-66
2022/05/29 12:25:48;;;;;;;9.60;2.20;;;12.80;70.80;;;;;;5064907;28;20053;-60
2022/05/29 12:28:27;;;;;;;10.98;2.20;;;12.80;69.70;;;;;;5045042;28;20052;-64
2022/05/29 12:30:55;;;;;;;14.88;2.15;;;12.90;80.60;;;;;;5058837;28;20108;-68
2022/05/29 12:33:23;;;;;;;9.13;2.28;;;12.90;81.30;;;;;;5066794;28;20048;-60
2022/05/29 12:36:06;;;;;;;9.68;2.63;;;12.90;86.90;;;;;;5066212;28;20041;-60
2022/05/29 12:39:07;;;;;;;20.20;2.67;;;12.90;80.70;;;;;;5063675;28;20049;-59
2022/05/29 12:41:49;;;;;;;12.85;2.17;;;12.90;81.50;;;;;;5038218;28;20060;-63
2022/05/29 12:44:24;;;;;;;14.25;2.65;;;12.90;88.50;;;;;;5046178;28;20139;-62
2022/05/29 12:47:14;;;;;;;21.20;4.07;;;13.00;88.80;;;;;;5064464;28;20048;-64
2022/05/29 12:49:47;;;;;;;;;;;13.00;81.20;;;;;;5064619;28;20048;-64
2022/05/29 12:52:30;;;;;;;10.93;1.70;;;13.20;86.80;;;;;;5060945;28;19924;-62
2022/05/29 12:55:38;;;;;;;14.23;2.63;;;13.00;75.00;;;;;;5058969;28;20052;-67
2022/05/29 12:58:37;;;;;;;13.43;2.05;;;12.80;77.00;;;;;;5062600;28;20048;-70
2022/05/29 13:01:22;;;;;;;18.33;2.40;;;12.70;80.80;;;;;;5061900;28;20331;-62
2022/05/29 13:04:04;;;;;;;13.55;1.80;;;12.60;73.00;;;;;;5047427;28;20507;-64
2022/05/29 13:06:48;;;;;;;9.57;1.83;;;12.50;75.10;;;;;;5046414;28;20048;-67
2022/05/29 13:09:31;;;;;;;15.77;2.40;;;12.40;68.60;;;;;;5061278;28;20040;-63
2022/05/29 13:12:03;;;;;;;8.85;2.08;;;12.40;76.50;;;;;;5064125;28;20063;-71
2022/05/29 13:14:30;;;;;;;10.75;2.20;;;12.40;80.00;;;;;;5059292;28;20084;-66
2022/05/29 13:17:03;;;;;;;12.65;2.40;;;12.40;75.00;;;;;;5042803;28;20495;-64
2022/05/29 13:19:59;;;;;;;13.13;1.90;;;12.40;77.20;;;;;;5063445;28;20166;-60
2022/05/29 13:23:02;;;;;;;15.60;2.22;;;12.40;83.70;;;;;;5059392;28;20080;-71
2022/05/29 13:25:50;;;;;;;12.30;2.20;;;12.50;78.50;;;;;;5054108;28;20064;-70
2022/05/29 13:28:46;;;;;;;12.52;2.38;;;12.50;75.80;;;;;;5043042;28;20052;-64
2022/05/29 13:31:17;;;;;;;11.93;2.00;;;12.60;69.60;;;;;;5057940;28;20083;-70
2022/05/29 13:33:43;;;;;;;11.77;2.22;;;12.60;69.10;;;;;;5039267;28;20090;-65
2022/05/29 13:36:31;;;;;;;16.85;3.45;;;12.70;75.00;;;;;;5061390;28;20498;-72
2022/05/29 13:38:57;;;;;;;14.32;2.25;;;12.60;79.50;;;;;;5062409;28;20052;-70
2022/05/29 13:41:29;;;;;;;15.05;2.30;;;12.60;80.00;;;;;;5046156;28;20052;-60
2022/05/29 13:44:17;;;;;;;12.93;2.25;;;12.70;78.20;;;;;;5061253;28;20045;-67
2022/05/29 13:46:44;;;;;;;7.85;1.83;;;12.70;70.90;;;;;;5063065;28;20053;-66
2022/05/29 13:49:13;;;;;;;10.73;1.88;;;12.60;70.30;;;;;;5061624;28;20509;-70
2022/05/29 13:51:44;;;;;;;11.38;2.13;;;12.60;76.00;;;;;;5059478;28;20212;-66